Time;durP1;ratioP1;P1;durP2;ratioP2;P2;SDS_P1;SDS_P2;PMS_P1;PMS_P2;Temp;Humidity;BMP_temperature;BMP_pressure;BME280_temperature;BME280_humidity;BME280_pressure;Samples;Min_cycle;Max_cycle;Signal;HPM_P1;HPM_P2
2022/01/21 00:01:21;;;;;;;2.17;1.50;;;;;;;1.60;97.96;97397.75;5057831;28;20265;-86
2022/01/21 00:03:49;;;;;;;2.07;1.30;;;;;;;1.59;97.79;97402.25;5055069;28;20213;-86
2022/01/21 00:06:16;;;;;;;3.33;1.43;;;;;;;1.57;99.13;97406.03;5067442;28;20312;-86
2022/01/21 00:08:45;;;;;;;3.33;1.90;;;;;;;1.58;98.41;97395.25;5043074;28;20271;-85
2022/01/21 00:11:14;;;;;;;3.50;1.50;;;;;;;1.59;98.24;97410.22;5066543;28;20244;-86
2022/01/21 00:13:41;;;;;;;2.43;1.40;;;;;;;1.66;97.24;97399.81;5055678;28;20206;-86
2022/01/21 00:16:13;;;;;;;4.73;1.70;;;;;;;1.62;94.40;97393.94;5057387;28;20285;-86
2022/01/21 00:18:44;;;;;;;1.97;1.30;;;;;;;1.65;94.22;97396.31;5057871;28;20209;-87
2022/01/21 00:32:11;;;;;;;2.83;1.37;;;;;;;1.62;92.36;97409.06;5058061;28;20209;-86
2022/01/21 00:34:38;;;;;;;4.20;1.53;;;;;;;1.66;89.69;97408.66;5044978;28;20296;-86
2022/01/21 00:37:05;;;;;;;2.37;1.40;;;;;;;1.65;91.45;97414.13;5053533;28;20225;-87
2022/01/21 00:39:34;;;;;;;3.83;1.87;;;;;;;1.63;91.97;97405.44;5049755;28;20222;-86
2022/01/21 00:42:10;;;;;;;2.30;1.30;;;;;;;1.62;93.05;97419.72;5063236;28;20204;-86
2022/01/21 00:44:38;;;;;;;2.87;1.70;;;;;;;1.62;92.22;97398.44;5039334;28;20206;-86
2022/01/21 00:47:05;;;;;;;2.17;1.40;;;;;;;1.67;92.24;97398.84;5046168;28;20235;-86
2022/01/21 00:49:34;;;;;;;4.03;1.87;;;;;;;1.60;92.79;97403.94;5045149;28;20217;-86
2022/01/21 00:52:01;;;;;;;3.43;1.60;;;;;;;1.60;92.69;97401.25;5030726;28;20198;-86
2022/01/21 00:54:30;;;;;;;1.13;1.03;;;;;;;1.59;90.26;97399.59;5057855;28;20490;-87
2022/01/21 00:57:06;;;;;;;2.10;1.37;;;;;;;1.57;90.43;97414.03;5040552;28;20282;-86
2022/01/21 00:59:34;;;;;;;2.67;1.40;;;;;;;1.63;89.61;97416.91;5066886;28;20249;-86
2022/01/21 01:02:01;;;;;;;4.00;1.83;;;;;;;1.52;89.57;97410.00;5039155;28;20275;-86
2022/01/21 01:04:28;;;;;;;4.97;1.40;;;;;;;1.55;89.40;97400.00;5042228;28;20206;-87
2022/01/21 01:06:57;;;;;;;3.40;1.50;;;;;;;1.59;88.57;97414.72;5043114;28;20222;-85
2022/01/21 01:09:24;;;;;;;3.57;1.87;;;;;;;1.58;89.12;97419.19;5049325;28;20217;-86
2022/01/21 01:12:08;;;;;;;4.90;1.50;;;;;;;1.55;89.18;97419.50;5054824;28;20212;-87
2022/01/21 01:20:14;;;;;;;3.80;1.60;;;;;;;1.59;89.41;97434.19;5059587;28;20225;-85
2022/01/21 01:22:51;;;;;;;3.60;1.30;;;;;;;1.52;90.04;97430.44;5037464;28;20212;-86
2022/01/21 01:28:12;;;;;;;1.73;1.20;;;;;;;1.55;89.83;97429.28;5021726;28;20229;-86
2022/01/21 01:30:39;;;;;;;3.33;1.50;;;;;;;1.52;88.52;97436.63;5057658;28;20251;-86
2022/01/21 01:33:09;;;;;;;2.70;1.60;;;;;;;1.59;88.97;97436.84;5046053;28;20209;-86
2022/01/21 01:35:38;;;;;;;2.77;1.40;;;;;;;1.51;88.93;97428.75;5059086;28;20299;-86
2022/01/21 01:38:26;;;;;;;6.40;1.80;;;;;;;1.51;89.27;97426.94;5044348;28;20209;-86
2022/01/21 01:40:57;;;;;;;3.33;1.40;;;;;;;1.59;88.79;97425.38;5058587;28;20232;-86
2022/01/21 01:51:47;;;;;;;5.27;1.73;;;;;;;1.47;90.41;97428.22;5059369;28;20208;-86
2022/01/21 01:54:17;;;;;;;4.27;1.80;;;;;;;1.50;90.97;97433.25;5059617;28;20200;-87
2022/01/21 01:56:48;;;;;;;5.67;1.80;;;;;;;1.48;91.65;97419.25;5039828;28;20205;-86
2022/01/21 01:59:15;;;;;;;4.00;1.90;;;;;;;1.45;91.29;97411.53;5050786;28;20237;-86
2022/01/21 02:01:42;;;;;;;2.50;1.93;;;;;;;1.41;92.58;97407.53;5044073;28;20260;-86
2022/01/21 02:04:09;;;;;;;2.73;1.80;;;;;;;1.45;92.84;97406.22;5062117;28;20194;-86
2022/01/21 02:06:37;;;;;;;4.43;1.70;;;;;;;1.39;94.24;97408.63;5072107;28;20228;-87
2022/01/21 02:09:04;;;;;;;4.23;1.90;;;;;;;1.44;93.26;97401.91;5056713;28;20210;-86
2022/01/21 02:11:32;;;;;;;3.50;1.60;;;;;;;1.43;94.15;97410.03;5038304;28;20301;-87
2022/01/21 02:14:01;;;;;;;4.97;1.93;;;;;;;1.44;94.14;97399.25;5044442;28;20296;-85
2022/01/21 02:16:39;;;;;;;2.57;1.70;;;;;;;1.50;94.59;97400.47;5037852;28;20209;-86
2022/01/21 02:21:53;;;;;;;6.03;2.00;;;;;;;1.44;96.92;97411.72;5069149;28;20304;-86
2022/01/21 02:24:34;;;;;;;3.00;1.80;;;;;;;1.42;98.37;97398.56;5038735;28;20283;-86
2022/01/21 02:27:02;;;;;;;3.43;1.80;;;;;;;1.30;98.45;97410.38;5058856;28;20201;-86
2022/01/21 02:29:32;;;;;;;3.43;1.80;;;;;;;1.36;99.39;97409.75;5043074;28;20223;-86
2022/01/21 02:32:01;;;;;;;6.17;2.37;;;;;;;1.31;99.97;97404.06;5061103;28;20206;-86
2022/01/21 02:34:30;;;;;;;3.83;2.10;;;;;;;1.27;100.00;97400.03;5043854;28;20208;-86
2022/01/21 02:36:59;;;;;;;4.30;2.20;;;;;;;1.25;100.00;97394.00;5041951;28;20210;-86
2022/01/21 02:39:27;;;;;;;3.20;1.60;;;;;;;1.20;100.00;97390.94;5042132;28;20224;-87
2022/01/21 02:41:55;;;;;;;5.63;1.90;;;;;;;1.23;100.00;97409.28;5045402;28;20259;-87
2022/01/21 02:44:24;;;;;;;3.43;1.77;;;;;;;1.22;100.00;97412.91;5057961;28;20201;-86
2022/01/21 02:46:55;;;;;;;3.93;1.87;;;;;;;1.17;99.69;97401.88;5064122;28;20215;-86
2022/01/21 02:49:22;;;;;;;2.63;1.77;;;;;;;1.19;100.00;97409.72;5046806;28;20205;-86
2022/01/21 02:51:51;;;;;;;3.00;1.90;;;;;;;1.22;100.00;97414.75;5061644;28;20208;-87
2022/01/21 02:54:20;;;;;;;4.40;2.47;;;;;;;1.16;100.00;97413.50;5047652;28;20212;-87
2022/01/21 02:56:47;;;;;;;7.83;2.00;;;;;;;1.20;99.89;97422.03;5049610;28;20215;-87
2022/01/21 02:59:14;;;;;;;4.00;2.00;;;;;;;1.22;98.84;97418.25;5049921;28;20228;-86
2022/01/21 03:01:43;;;;;;;3.97;2.03;;;;;;;1.26;98.68;97424.13;5063907;28;20221;-86
2022/01/21 03:04:19;;;;;;;7.93;2.00;;;;;;;1.22;98.22;97417.41;5057308;28;20209;-87
2022/01/21 03:06:46;;;;;;;4.07;1.90;;;;;;;1.25;98.44;97415.28;5057077;28;20251;-85
2022/01/21 03:09:13;;;;;;;5.43;2.10;;;;;;;1.23;98.13;97411.09;5060778;28;20209;-87
2022/01/21 03:11:42;;;;;;;3.57;1.80;;;;;;;1.27;98.92;97420.47;5072209;28;20213;-86
2022/01/21 03:14:09;;;;;;;6.83;1.97;;;;;;;1.22;98.58;97410.25;5073180;28;20228;-86
2022/01/21 03:16:37;;;;;;;4.80;2.20;;;;;;;1.31;95.74;97425.34;5058764;28;20292;-86
2022/01/21 03:19:04;;;;;;;4.53;1.90;;;;;;;1.24;95.26;97416.28;5061055;28;20212;-86
2022/01/21 03:21:32;;;;;;;2.87;1.70;;;;;;;1.26;93.39;97409.00;5057169;28;20291;-86
2022/01/21 03:24:00;;;;;;;3.87;1.90;;;;;;;1.31;93.55;97409.38;5044764;28;20212;-87
2022/01/21 03:26:28;;;;;;;4.47;1.70;;;;;;;1.24;93.19;97408.28;5056804;28;20268;-86
2022/01/21 03:28:59;;;;;;;4.97;2.10;;;;;;;1.31;92.50;97404.06;5061688;28;20529;-86
2022/01/21 03:31:30;;;;;;;3.37;1.80;;;;;;;1.24;93.52;97400.31;5070267;28;20197;-87
2022/01/21 03:33:59;;;;;;;5.23;1.63;;;;;;;1.25;93.19;97391.34;5051817;28;20193;-86
2022/01/21 03:36:27;;;;;;;7.03;1.80;;;;;;;1.24;93.14;97395.00;5050099;28;20205;-87
2022/01/21 03:38:55;;;;;;;6.97;2.10;;;;;;;1.23;92.90;97382.66;5051858;28;20205;-86
2022/01/21 03:41:22;;;;;;;3.10;1.87;;;;;;;1.21;93.36;97386.44;5045965;28;20217;-86
2022/01/21 03:43:50;;;;;;;4.13;1.90;;;;;;;1.19;92.66;97383.97;5051012;28;20232;-86
2022/01/21 03:46:18;;;;;;;4.60;1.60;;;;;;;1.19;91.71;97385.78;5031098;28;20210;-86
2022/01/21 03:48:48;;;;;;;2.97;1.50;;;;;;;1.19;90.75;97389.28;5056697;28;20289;-86
2022/01/21 03:51:18;;;;;;;3.17;1.53;;;;;;;1.17;90.91;97374.44;5050511;28;20308;-86
2022/01/21 03:53:46;;;;;;;2.43;1.73;;;;;;;1.13;91.67;97392.50;5045428;28;20204;-87
2022/01/21 03:56:14;;;;;;;2.40;1.60;;;;;;;1.17;90.90;97387.75;5044896;28;20208;-87
2022/01/21 03:58:41;;;;;;;2.90;1.63;;;;;;;1.16;90.58;97389.56;5055855;28;20208;-87
2022/01/21 04:01:10;;;;;;;3.67;1.80;;;;;;;1.18;90.84;97390.28;5045525;28;20253;-86
2022/01/21 04:03:39;;;;;;;5.87;2.07;;;;;;;1.15;92.07;97390.53;5074449;28;20269;-86
2022/01/21 04:06:06;;;;;;;2.80;1.97;;;;;;;1.16;94.13;97399.38;5043972;28;20302;-85
2022/01/21 04:08:33;;;;;;;2.87;1.67;;;;;;;1.08;95.10;97405.41;5060242;28;20272;-86
2022/01/21 04:11:04;;;;;;;2.03;1.60;;;;;;;1.03;93.72;97405.00;5045230;28;20248;-86
2022/01/21 04:13:35;;;;;;;5.20;1.90;;;;;;;1.11;91.32;97400.63;5057053;28;20219;-87
2022/01/21 04:16:05;;;;;;;5.07;2.13;;;;;;;1.12;90.31;97399.66;5051268;28;20208;-85
2022/01/21 04:18:34;;;;;;;3.17;1.63;;;;;;;1.17;89.97;97412.53;5061177;28;20208;-86
2022/01/21 04:21:05;;;;;;;2.80;1.60;;;;;;;1.20;89.94;97408.72;5059881;28;20266;-86
2022/01/21 04:23:34;;;;;;;4.90;2.10;;;;;;;1.19;90.93;97413.22;5064977;28;20213;-86
2022/01/21 04:26:02;;;;;;;3.73;1.87;;;;;;;1.16;90.38;97416.16;5045900;28;20199;-86
2022/01/21 04:28:29;;;;;;;2.07;1.53;;;;;;;1.25;90.72;97425.09;5047179;28;20209;-85
2022/01/21 04:31:00;;;;;;;3.47;1.67;;;;;;;1.11;91.78;97411.28;5054034;28;20233;-86
2022/01/21 04:33:34;;;;;;;3.67;1.80;;;;;;;1.14;92.01;97416.31;5056888;28;20201;-86
2022/01/21 04:36:06;;;;;;;3.97;1.70;;;;;;;1.17;91.71;97414.34;5040516;28;20219;-86
2022/01/21 04:38:37;;;;;;;7.63;2.03;;;;;;;1.18;91.70;97416.03;5051873;28;20208;-86
2022/01/21 04:41:18;;;;;;;4.97;1.70;;;;;;;1.20;91.29;97417.53;5057396;28;20229;-87
2022/01/21 04:49:18;;;;;;;4.33;1.87;;;;;;;1.11;89.83;97405.94;5054265;28;20302;-87
2022/01/21 04:52:02;;;;;;;3.70;1.83;;;;;;;1.15;90.09;97411.84;5049665;28;20219;-86
2022/01/21 04:54:37;;;;;;;7.23;1.90;;;;;;;1.20;90.59;97414.88;5051801;28;20290;-86
2022/01/21 04:57:06;;;;;;;4.83;1.90;;;;;;;1.13;91.01;97409.31;5060891;28;20279;-85
2022/01/21 04:59:34;;;;;;;3.50;1.90;;;;;;;1.16;90.43;97418.00;5054095;28;20324;-86
2022/01/21 05:02:01;;;;;;;4.10;1.80;;;;;;;1.17;90.37;97406.38;5041422;28;20228;-86
2022/01/21 05:04:28;;;;;;;5.90;2.13;;;;;;;1.17;89.40;97419.66;5057451;28;20258;-86
2022/01/21 05:06:57;;;;;;;4.47;2.03;;;;;;;1.18;90.36;97427.50;5045441;28;20236;-86
2022/01/21 05:09:30;;;;;;;8.30;2.37;;;;;;;1.16;89.12;97413.50;5054887;28;20194;-86
2022/01/21 05:11:59;;;;;;;2.63;2.03;;;;;;;1.17;89.70;97420.50;5047419;28;20212;-86
2022/01/21 05:14:41;;;;;;;6.67;2.47;;;;;;;1.13;89.63;97427.09;5065486;28;20217;-86
2022/01/21 05:17:11;;;;;;;3.40;1.57;;;;;;;1.09;90.27;97418.59;5047296;28;20209;-86
2022/01/21 05:19:39;;;;;;;5.13;1.70;;;;;;;1.14;90.45;97415.47;5044740;28;20217;-87
2022/01/21 05:22:26;;;;;;;10.37;1.90;;;;;;;1.19;90.00;97420.38;5057705;28;20215;-86
2022/01/21 05:24:53;;;;;;;5.37;1.90;;;;;;;1.19;89.70;97429.19;5056736;28;20199;-86
2022/01/21 05:27:21;;;;;;;4.87;2.10;;;;;;;1.16;90.00;97432.13;5045366;28;20213;-86
2022/01/21 05:29:50;;;;;;;8.17;1.93;;;;;;;1.14;90.64;97432.28;5055100;28;20245;-86
2022/01/21 05:32:27;;;;;;;6.30;1.80;;;;;;;1.09;89.97;97429.22;5054111;28;20201;-86
2022/01/21 05:35:00;;;;;;;3.70;1.53;;;;;;;1.18;89.72;97442.63;5059139;28;20205;-85
2022/01/21 05:37:57;;;;;;;3.30;1.90;;;;;;;1.15;90.04;97438.44;5043880;28;20264;-86
2022/01/21 05:40:27;;;;;;;5.27;2.23;;;;;;;1.18;91.23;97446.13;5059894;28;20304;-86
2022/01/21 05:43:13;;;;;;;3.27;2.10;;;;;;;1.15;91.61;97449.06;5061456;28;20363;-86
2022/01/21 05:49:08;;;;;;;6.47;2.43;;;;;;;1.03;95.62;97453.72;5051323;28;20286;-86
2022/01/21 05:52:16;;;;;;;4.63;2.23;;;;;;;0.99;96.37;97449.69;5073537;28;20209;-85
2022/01/21 05:55:00;;;;;;;7.80;2.77;;;;;;;0.99;96.33;97462.13;5063479;28;20200;-86
2022/01/21 05:57:59;;;;;;;5.63;2.20;;;;;;;0.95;97.14;97469.56;5024208;28;20224;-85
2022/01/21 06:00:27;;;;;;;4.77;2.67;;;;;;;0.90;96.77;97460.34;5059543;28;20209;-86
2022/01/21 06:02:54;;;;;;;4.27;2.40;;;;;;;0.90;95.42;97465.66;5041625;28;20201;-85
2022/01/21 06:05:22;;;;;;;4.43;2.23;;;;;;;0.92;95.37;97474.34;5044356;28;20239;-86
2022/01/21 06:07:49;;;;;;;4.50;2.17;;;;;;;0.98;95.80;97485.25;5033792;28;20296;-85
2022/01/21 06:10:17;;;;;;;4.73;2.70;;;;;;;0.92;95.49;97479.66;5072507;28;20240;-86
2022/01/21 06:12:44;;;;;;;6.37;3.00;;;;;;;0.99;96.29;97475.44;5056002;28;20246;-86
2022/01/21 06:15:12;;;;;;;7.10;3.60;;;;;;;0.89;96.65;97480.78;5045095;28;20212;-85
2022/01/21 06:17:39;;;;;;;3.50;2.60;;;;;;;0.80;97.86;97478.97;5044041;28;20216;-86
2022/01/21 06:20:07;;;;;;;4.30;2.60;;;;;;;0.77;98.26;97485.41;5056001;28;20299;-86
2022/01/21 06:22:34;;;;;;;5.00;2.67;;;;;;;0.71;98.58;97480.66;5062970;28;20224;-85
2022/01/21 06:25:01;;;;;;;6.97;2.80;;;;;;;0.69;100.00;97479.09;5066112;28;20203;-86
2022/01/21 06:27:32;;;;;;;7.23;2.90;;;;;;;0.74;100.00;97475.06;5065650;28;20291;-86
2022/01/21 06:29:59;;;;;;;5.67;2.70;;;;;;;0.77;100.00;97489.06;5047129;28;20252;-85
2022/01/21 06:32:29;;;;;;;7.00;2.57;;;;;;;0.72;100.00;97469.03;5064192;28;20204;-85
2022/01/21 06:34:56;;;;;;;4.13;2.77;;;;;;;0.83;100.00;97485.81;5066278;28;20202;-86
2022/01/21 06:37:23;;;;;;;4.53;2.40;;;;;;;0.79;100.00;97485.25;5068930;28;20212;-87
2022/01/21 06:39:50;;;;;;;8.20;3.00;;;;;;;0.77;100.00;97481.09;5062302;28;20203;-86
2022/01/21 06:42:22;;;;;;;4.60;2.53;;;;;;;0.72;100.00;97484.16;5060149;28;20284;-86
2022/01/21 06:44:50;;;;;;;3.73;2.70;;;;;;;0.64;100.00;97478.69;5061825;28;20269;-86
2022/01/21 06:47:18;;;;;;;3.40;2.57;;;;;;;0.57;100.00;97494.38;5063609;28;20260;-86
2022/01/21 06:49:46;;;;;;;6.57;2.77;;;;;;;0.51;100.00;97499.44;5051199;28;20261;-86
2022/01/21 06:52:13;;;;;;;7.23;3.40;;;;;;;0.48;100.00;97503.19;5058563;28;20209;-86
2022/01/21 06:54:40;;;;;;;7.20;3.70;;;;;;;0.47;100.00;97506.81;5056986;28;20214;-86
2022/01/21 06:57:08;;;;;;;7.30;4.57;;;;;;;0.41;100.00;97512.69;5050986;28;20351;-86
2022/01/21 06:59:35;;;;;;;12.30;4.90;;;;;;;0.37;100.00;97521.91;5062817;28;20212;-86
2022/01/21 07:02:04;;;;;;;19.97;11.43;;;;;;;0.31;100.00;97509.19;5064229;28;20240;-86
2022/01/21 07:04:32;;;;;;;13.83;9.17;;;;;;;0.27;100.00;97515.75;5058098;28;20214;-86
2022/01/21 07:06:59;;;;;;;7.43;3.70;;;;;;;0.24;100.00;97513.38;5035199;28;20288;-86
2022/01/21 07:09:26;;;;;;;5.80;3.50;;;;;;;0.17;100.00;97514.91;5056534;28;20256;-86
2022/01/21 07:11:53;;;;;;;6.10;3.67;;;;;;;0.18;100.00;97522.72;5063884;28;20214;-85
2022/01/21 07:14:21;;;;;;;6.90;3.33;;;;;;;0.24;100.00;97531.97;5063945;28;20213;-86
2022/01/21 07:16:48;;;;;;;5.57;3.23;;;;;;;0.22;100.00;97529.44;5047975;28;20225;-86
2022/01/21 07:19:16;;;;;;;6.17;2.83;;;;;;;0.19;100.00;97534.19;5043657;28;20216;-86
2022/01/21 07:21:43;;;;;;;7.47;3.50;;;;;;;0.25;100.00;97538.97;5041007;28;20218;-85
2022/01/21 07:24:11;;;;;;;9.30;4.27;;;;;;;0.09;100.00;97520.03;5037580;28;20213;-86
2022/01/21 07:26:38;;;;;;;5.33;3.20;;;;;;;0.09;100.00;97533.31;5048336;28;20210;-87
2022/01/21 07:29:05;;;;;;;6.87;3.10;;;;;;;0.05;100.00;97531.94;5057815;28;20231;-87
2022/01/21 07:31:32;;;;;;;6.97;3.90;;;;;;;0.04;100.00;97536.41;5059513;28;20202;-86
2022/01/21 07:34:04;;;;;;;6.63;3.50;;;;;;;0.07;100.00;97559.19;5044823;28;20215;-86
2022/01/21 07:36:33;;;;;;;6.07;3.13;;;;;;;0.03;100.00;97555.13;5057750;28;20201;-86
2022/01/21 07:39:00;;;;;;;8.43;3.43;;;;;;;0.03;100.00;97555.13;5062711;28;20220;-87
2022/01/21 07:41:28;;;;;;;5.43;3.10;;;;;;;0.09;100.00;97575.81;5038288;28;20240;-86
2022/01/21 07:43:55;;;;;;;6.87;3.43;;;;;;;0.06;100.00;97578.75;5065588;28;20205;-86
2022/01/21 07:46:22;;;;;;;5.40;3.17;;;;;;;0.07;100.00;97572.47;5043182;28;20224;-86
2022/01/21 07:48:49;;;;;;;6.13;3.20;;;;;;;0.14;100.00;97586.88;5056490;28;20224;-86
2022/01/21 07:51:17;;;;;;;5.73;3.00;;;;;;;0.15;100.00;97575.28;5041412;28;20225;-85
2022/01/21 07:53:45;;;;;;;6.70;3.50;;;;;;;0.16;100.00;97588.44;5055849;28;20301;-86
2022/01/21 07:56:12;;;;;;;5.33;3.87;;;;;;;0.17;100.00;97589.28;5051073;28;20210;-86
2022/01/21 07:58:39;;;;;;;9.80;4.93;;;;;;;0.11;100.00;97587.16;5051833;28;20212;-86
2022/01/21 08:01:06;;;;;;;9.20;5.07;;;;;;;0.17;100.00;97597.25;5030067;28;20206;-86
2022/01/21 08:03:33;;;;;;;8.57;4.57;;;;;;;0.17;100.00;97598.06;5057280;28;20209;-86
2022/01/21 08:06:00;;;;;;;11.07;4.30;;;;;;;0.19;100.00;97595.28;5041732;28;20240;-86
2022/01/21 08:08:28;;;;;;;8.10;3.97;;;;;;;0.17;100.00;97599.91;5049798;28;20313;-85
2022/01/21 08:10:56;;;;;;;6.50;4.03;;;;;;;0.15;100.00;97599.19;5068001;28;20322;-86
2022/01/21 08:13:23;;;;;;;8.67;4.03;;;;;;;0.08;100.00;97592.75;5058783;28;20210;-85
2022/01/21 08:15:51;;;;;;;6.27;3.77;;;;;;;0.13;100.00;97603.78;5062566;28;20210;-86
2022/01/21 08:18:18;;;;;;;9.17;4.00;;;;;;;0.13;100.00;97603.78;5041598;28;20210;-86
2022/01/21 08:20:45;;;;;;;7.60;3.50;;;;;;;0.08;100.00;97596.25;5061876;28;20206;-86
2022/01/21 08:23:12;;;;;;;6.77;3.77;;;;;;;0.11;100.00;97606.56;5048065;28;20247;-87
2022/01/21 08:25:41;;;;;;;6.70;3.80;;;;;;;0.12;100.00;97604.78;5054923;28;20217;-86
2022/01/21 08:28:09;;;;;;;7.63;4.10;;;;;;;0.15;100.00;97601.84;5037623;28;20210;-86
2022/01/21 08:30:37;;;;;;;10.50;4.07;;;;;;;0.17;100.00;97605.22;5062831;28;20227;-86
2022/01/21 08:33:05;;;;;;;10.80;3.80;;;;;;;0.18;100.00;97604.22;5037791;28;20196;-87
2022/01/21 08:35:33;;;;;;;7.50;3.80;;;;;;;0.21;100.00;97601.31;5065198;28;20202;-87
2022/01/21 08:38:00;;;;;;;6.80;3.47;;;;;;;0.24;100.00;97601.03;5048208;28;20221;-86
2022/01/21 08:40:28;;;;;;;7.17;3.13;;;;;;;0.26;100.00;97599.06;5058988;28;20230;-86
2022/01/21 08:42:55;;;;;;;7.07;3.10;;;;;;;0.28;100.00;97591.81;5039717;28;20236;-86
2022/01/21 08:45:24;;;;;;;7.33;2.97;;;;;;;0.26;100.00;97588.44;5038498;28;20246;-86
2022/01/21 08:47:51;;;;;;;6.47;3.37;;;;;;;0.26;100.00;97581.31;5046191;28;20193;-86
2022/01/21 08:50:21;;;;;;;4.23;2.90;;;;;;;0.23;100.00;97570.13;5048131;28;20211;-85
2022/01/21 08:52:55;;;;;;;6.03;3.30;;;;;;;0.28;100.00;97575.88;5059148;28;20266;-86
2022/01/21 08:55:23;;;;;;;5.50;4.07;;;;;;;0.23;100.00;97567.47;5061245;28;20217;-87
2022/01/21 08:57:50;;;;;;;6.00;3.50;;;;;;;0.24;100.00;97563.84;5059505;28;20208;-85
2022/01/21 09:00:20;;;;;;;5.50;3.47;;;;;;;0.22;100.00;97563.16;5062140;28;20289;-86
2022/01/21 09:02:51;;;;;;;6.23;3.43;;;;;;;0.19;100.00;97560.75;5055482;28;20232;-86
2022/01/21 09:05:18;;;;;;;5.93;3.40;;;;;;;0.13;100.00;97563.97;5045322;28;20202;-86
2022/01/21 09:07:45;;;;;;;9.17;4.50;;;;;;;0.06;100.00;97563.66;5061783;28;20234;-85
2022/01/21 09:10:13;;;;;;;9.33;4.00;;;;;;;0.03;100.00;97573.72;5040102;28;20332;-86
2022/01/21 09:12:40;;;;;;;4.53;2.77;;;;;;;0.02;100.00;97580.81;5047030;28;20194;-86
2022/01/21 09:15:09;;;;;;;5.30;2.77;;;;;;;-0.02;99.99;97569.66;5065662;28;20224;-86
2022/01/21 09:17:37;;;;;;;3.13;2.13;;;;;;;0.04;98.78;97578.88;5047549;28;20204;-86
2022/01/21 09:20:08;;;;;;;2.93;2.20;;;;;;;0.09;97.50;97570.50;5053009;28;20202;-86
2022/01/21 09:22:35;;;;;;;2.73;1.90;;;;;;;0.20;96.29;97595.16;5062322;28;20229;-86
2022/01/21 09:25:02;;;;;;;3.97;2.03;;;;;;;0.21;92.86;97588.03;5047987;28;20216;-87
2022/01/21 09:27:29;;;;;;;5.43;2.40;;;;;;;0.21;94.43;97593.34;5051607;28;20304;-86
2022/01/21 09:29:56;;;;;;;3.87;2.33;;;;;;;0.23;96.25;97591.38;5050416;28;20339;-86
2022/01/21 09:32:23;;;;;;;2.53;1.80;;;;;;;0.30;95.66;97596.03;5054342;28;20264;-85
2022/01/21 09:34:50;;;;;;;3.60;1.90;;;;;;;0.41;95.91;97602.19;5047205;28;20204;-86
2022/01/21 09:37:19;;;;;;;4.47;2.47;;;;;;;0.52;97.10;97608.22;5049145;28;20373;-86
2022/01/21 09:39:46;;;;;;;4.77;3.67;;;;;;;0.65;96.47;97616.78;5052680;28;20206;-86
2022/01/21 09:42:15;;;;;;;4.77;2.70;;;;;;;0.67;92.35;97625.47;5054747;28;20251;-86
2022/01/21 09:44:44;;;;;;;5.77;2.67;;;;;;;0.65;92.29;97624.78;5046855;28;20238;-87
2022/01/21 09:47:15;;;;;;;5.80;2.47;;;;;;;0.82;93.30;97623.25;5060684;28;20201;-86
2022/01/21 09:49:44;;;;;;;3.83;2.40;;;;;;;0.93;92.80;97627.59;5044633;28;20215;-87
2022/01/21 09:52:12;;;;;;;4.10;2.40;;;;;;;1.00;92.02;97626.91;5073083;28;20304;-86
2022/01/21 09:54:45;;;;;;;3.73;2.33;;;;;;;1.00;90.18;97626.91;5067705;28;20216;-86
2022/01/21 09:57:18;;;;;;;6.13;2.40;;;;;;;1.04;91.66;97635.44;5061536;28;20229;-86
2022/01/21 09:59:46;;;;;;;5.03;2.23;;;;;;;1.14;92.01;97629.13;5040999;28;20198;-86
2022/01/21 10:02:16;;;;;;;4.43;2.17;;;;;;;1.28;92.48;97625.19;5062022;28;20311;-85
2022/01/21 10:04:43;;;;;;;3.60;2.13;;;;;;;1.38;88.26;97635.84;5050754;28;20306;-86
2022/01/21 10:07:16;;;;;;;2.60;2.00;;;;;;;1.52;86.76;97620.28;5072786;28;20228;-86
2022/01/21 10:09:46;;;;;;;5.03;2.10;;;;;;;1.68;86.37;97624.16;5064551;28;20322;-86
2022/01/21 10:12:14;;;;;;;6.50;2.40;;;;;;;1.79;87.43;97610.66;5057771;28;20204;-85
2022/01/21 10:14:43;;;;;;;3.43;2.30;;;;;;;1.97;86.03;97619.56;5040552;28;20224;-86
2022/01/21 10:17:10;;;;;;;3.80;2.67;;;;;;;2.11;83.46;97629.78;5060085;28;20224;-86
2022/01/21 10:19:39;;;;;;;2.60;2.00;;;;;;;2.28;82.34;97631.66;5051283;28;20210;-85
2022/01/21 10:22:10;;;;;;;4.30;3.00;;;;;;;2.38;80.78;97633.44;5057909;28;20224;-87
2022/01/21 10:24:52;;;;;;;8.30;3.67;;;;;;;2.51;82.34;97641.94;5071831;28;20210;-86
2022/01/21 10:27:26;;;;;;;8.23;2.77;;;;;;;2.69;80.46;97642.81;5066483;28;20209;-87
2022/01/21 10:29:54;;;;;;;5.67;2.77;;;;;;;2.83;78.59;97623.63;5058161;28;20208;-85
2022/01/21 10:32:33;;;;;;;4.07;2.60;;;;;;;2.89;76.40;97632.88;5062387;28;20204;-86
2022/01/21 10:35:01;;;;;;;2.70;2.10;;;;;;;2.95;76.09;97625.09;5065056;28;20218;-85
2022/01/21 10:37:32;;;;;;;5.03;2.30;;;;;;;2.92;74.61;97635.22;5064166;28;20253;-87
2022/01/21 10:40:03;;;;;;;2.93;2.40;;;;;;;2.97;74.60;97625.78;5068559;28;20293;-86
2022/01/21 10:42:30;;;;;;;8.93;2.60;;;;;;;3.02;73.79;97627.97;5044253;28;20214;-86
2022/01/21 10:44:59;;;;;;;4.57;2.77;;;;;;;3.21;74.25;97635.84;5050663;28;20209;-87
2022/01/21 10:47:28;;;;;;;6.33;2.60;;;;;;;3.33;73.60;97625.75;5060835;28;20216;-87
2022/01/21 10:50:06;;;;;;;4.43;2.73;;;;;;;3.54;74.33;97626.28;5037140;28;20202;-87
2022/01/21 10:52:36;;;;;;;5.33;2.33;;;;;;;3.56;71.85;97618.13;5052721;28;20217;-87
2022/01/21 10:55:06;;;;;;;6.70;2.63;;;;;;;3.65;69.47;97622.53;5049525;28;20271;-86
2022/01/21 10:57:36;;;;;;;6.90;2.90;;;;;;;3.81;70.85;97617.28;5065577;28;20548;-87
2022/01/21 11:00:08;;;;;;;7.00;2.70;;;;;;;3.90;69.93;97620.84;5034463;28;20251;-86
2022/01/21 11:02:40;;;;;;;5.27;2.53;;;;;;;4.04;69.43;97633.63;5045223;28;20320;-87
2022/01/21 11:05:12;;;;;;;7.17;2.43;;;;;;;4.18;69.85;97625.00;5057174;28;20202;-86
2022/01/21 11:07:47;;;;;;;4.87;2.10;;;;;;;4.40;67.99;97624.47;5044162;28;20221;-86
2022/01/21 11:10:42;;;;;;;6.43;2.93;;;;;;;4.67;68.23;97625.22;5058156;28;20233;-87
2022/01/21 11:13:33;;;;;;;5.43;2.40;;;;;;;4.84;67.26;97619.78;5070924;28;20336;-87
2022/01/21 11:16:06;;;;;;;2.80;2.40;;;;;;;4.82;65.08;97620.91;5058381;28;20218;-87
2022/01/21 11:18:33;;;;;;;4.47;2.60;;;;;;;4.81;64.67;97611.22;5040451;28;20616;-86
2022/01/21 11:21:07;;;;;;;5.20;2.53;;;;;;;4.97;64.88;97624.63;5042905;28;20206;-86
2022/01/21 11:23:36;;;;;;;4.80;2.60;;;;;;;5.14;64.98;97618.31;5054069;28;20217;-86
2022/01/21 11:26:09;;;;;;;5.10;2.50;;;;;;;5.48;65.58;97620.00;5047134;28;20237;-86
2022/01/21 11:28:45;;;;;;;17.47;3.40;;;;;;;5.44;63.23;97632.06;5063627;28;20210;-86
2022/01/21 11:31:13;;;;;;;5.27;2.33;;;;;;;4.97;64.15;97619.28;5048108;28;20216;-86
2022/01/21 11:33:40;;;;;;;4.37;2.20;;;;;;;4.70;66.61;97627.56;5065324;28;20194;-86
2022/01/21 11:36:08;;;;;;;5.80;2.20;;;;;;;4.29;67.06;97619.38;5061099;28;20202;-86
2022/01/21 11:38:37;;;;;;;3.77;2.57;;;;;;;3.97;67.94;97632.59;5068457;28;20208;-86
2022/01/21 11:41:09;;;;;;;4.33;2.57;;;;;;;3.74;69.72;97632.28;5066626;28;20240;-86
2022/01/21 11:43:38;;;;;;;4.40;2.20;;;;;;;3.52;69.27;97632.75;5065076;28;20217;-86
2022/01/21 11:46:20;;;;;;;5.37;2.43;;;;;;;3.40;70.47;97640.19;5055628;28;20205;-86
2022/01/21 11:48:51;;;;;;;5.73;2.50;;;;;;;3.31;71.26;97633.09;5061667;28;20217;-86
2022/01/21 11:51:21;;;;;;;4.97;2.80;;;;;;;3.19;72.38;97631.66;5056368;28;20213;-86
2022/01/21 11:53:50;;;;;;;6.37;2.40;;;;;;;3.06;71.77;97639.22;5055447;28;20228;-86
2022/01/21 11:56:34;;;;;;;6.87;2.50;;;;;;;2.95;71.82;97625.09;5067630;28;20305;-86
2022/01/21 11:59:05;;;;;;;6.93;2.20;;;;;;;2.90;71.35;97630.03;5061157;28;20217;-85
2022/01/21 12:01:35;;;;;;;9.20;2.53;;;;;;;2.81;73.04;97627.41;5050391;28;20229;-86
2022/01/21 12:04:04;;;;;;;2.60;2.20;;;;;;;2.86;73.44;97622.50;5041748;28;20255;-86
2022/01/21 12:06:32;;;;;;;6.13;2.70;;;;;;;2.95;73.31;97619.75;5047020;28;20224;-86
2022/01/21 12:09:02;;;;;;;3.77;2.27;;;;;;;2.97;73.87;97620.44;5050502;28;20216;-86
2022/01/21 12:11:37;;;;;;;5.40;2.20;;;;;;;3.02;72.17;97622.66;5078118;28;20236;-86
2022/01/21 12:14:41;;;;;;;4.10;2.67;;;;;;;3.03;73.55;97622.50;5036597;28;20263;-86
2022/01/21 12:17:17;;;;;;;3.67;2.27;;;;;;;3.04;73.26;97618.84;5073086;28;20280;-86
2022/01/21 12:19:44;;;;;;;7.40;2.70;;;;;;;3.01;74.12;97619.13;5050608;28;20205;-86
2022/01/21 12:22:14;;;;;;;4.47;2.20;;;;;;;3.02;71.69;97617.31;5068041;28;20254;-86
2022/01/21 12:25:04;;;;;;;5.90;2.23;;;;;;;2.98;72.52;97611.44;5043224;28;20520;-86
2022/01/21 12:27:33;;;;;;;3.20;2.37;;;;;;;2.95;72.66;97614.41;5045854;28;20201;-86
2022/01/21 12:30:28;;;;;;;5.60;2.13;;;;;;;2.91;73.15;97630.88;5055655;28;20242;-86
2022/01/21 12:33:02;;;;;;;4.20;2.10;;;;;;;2.85;72.60;97620.81;5030907;28;20216;-86